Terminal Aerodrome Forecast
Issued by NWS

Home | Current Version | Previous Version | Text Only | Print | Product List | Glossary On
Versions: 1 2 3 4 5 6 7 8 9 10 11 12 13 14 15 16 17 18 19 20 21
000
FTUS41 KBGM 202359 CCA
TAFITH
TAF COR
KITH 202359Z 2100/2124 14008KT 6SM -RA BR OVC014
      TEMPO 2100/2104 BKN008
     FM210400 17005KT 5SM BR OVC015
     FM211000 19004KT P6SM OVC011
      TEMPO 2110/2114 OVC008
     FM211600 19004KT P6SM BKN021=

USA.gov is the U.S. government's official web portal to all federal, state and local government web resources and services.